Time,TemperatureF,DewpointF,PressureIn,WindDirection,WindDirectionDegrees,WindSpeedMPH,WindSpeedGustMPH,Humidity,HourlyPrecipIn,Conditions,Clouds,dailyrainin,SoftwareType,DateUTC
2013-02-25 00:07:00,32.9,9.0,29.94,West,259,0.0,-999.0,36,-99.99,,,0.00,weatherlink.com 1.10,2013-02-25 05:07:00,
2013-02-25 00:22:00,33.7,4.0,29.93,West,259,0.0,-999.0,28,-99.99,,,0.00,weatherlink.com 1.10,2013-02-25 05:22:00,
2013-02-25 00:37:00,34.0,6.0,29.91,West,259,0.0,-999.0,31,-99.99,,,0.00,weatherlink.com 1.10,2013-02-25 05:37:00,
2013-02-25 00:52:00,34.4,7.0,29.91,West,281,2.0,-999.0,31,-99.99,,,0.00,weatherlink.com 1.10,2013-02-25 05:52:00,
2013-02-25 01:07:00,35.0,4.0,29.91,WNW,291,2.0,-999.0,27,-99.99,,,0.00,weatherlink.com 1.10,2013-02-25 06:07:00,
2013-02-25 01:22:00,35.0,3.0,29.90,WNW,291,0.0,-999.0,26,-99.99,,,0.00,weatherlink.com 1.10,2013-02-25 06:22:00,
2013-02-25 01:37:00,35.9,-2.0,29.90,WNW,291,0.0,-999.0,20,-99.99,,,0.00,weatherlink.com 1.10,2013-02-25 06:37:00,
2013-02-25 01:53:00,36.9,-3.0,29.88,WNW,291,0.0,-999.0,18,-99.99,,,0.00,weatherlink.com 1.10,2013-02-25 06:53:00,
2013-02-25 02:08:00,37.6,-1.0,29.88,WNW,291,0.0,-999.0,19,-99.99,,,0.00,weatherlink.com 1.10,2013-02-25 07:08:00,
2013-02-25 02:23:00,36.9,-1.0,29.86,WNW,291,2.0,-999.0,20,-99.99,,,0.00,weatherlink.com 1.10,2013-02-25 07:23:00,
2013-02-25 02:38:00,37.3,1.0,29.87,WNW,291,2.0,-999.0,21,-99.99,,,0.00,weatherlink.com 1.10,2013-02-25 07:38:00,
2013-02-25 02:53:00,37.8,0.0,29.86,WNW,291,1.0,-999.0,20,-99.99,,,0.00,weatherlink.com 1.10,2013-02-25 07:53:00,
2013-02-25 03:08:00,37.5,-2.0,29.87,WNW,291,0.0,-999.0,19,-99.99,,,0.00,weatherlink.com 1.10,2013-02-25 08:08:00,
2013-02-25 03:23:00,37.9,-2.0,29.88,WNW,291,0.0,-999.0,18,-99.99,,,0.00,weatherlink.com 1.10,2013-02-25 08:23:00,
2013-02-25 03:38:00,38.0,0.0,29.87,WNW,291,2.0,-999.0,20,-99.99,,,0.00,weatherlink.com 1.10,2013-02-25 08:38:00,
2013-02-25 03:53:00,38.5,1.0,29.87,WNW,291,2.0,-999.0,20,-99.99,,,0.00,weatherlink.com 1.10,2013-02-25 08:53:00,
2013-02-25 04:08:00,39.1,4.0,29.86,WNW,291,0.0,-999.0,23,-99.99,,,0.00,weatherlink.com 1.10,2013-02-25 09:08:00,
2013-02-25 04:23:00,38.8,5.0,29.88,WNW,291,0.0,-999.0,24,-99.99,,,0.00,weatherlink.com 1.10,2013-02-25 09:23:00,
2013-02-25 04:38:00,38.8,8.0,29.88,WNW,291,1.0,-999.0,28,-99.99,,,0.00,weatherlink.com 1.10,2013-02-25 09:38:00,
2013-02-25 04:53:00,38.6,12.0,29.88,WNW,291,0.0,-999.0,34,-99.99,,,0.00,weatherlink.com 1.10,2013-02-25 09:53:00,
2013-02-25 05:08:00,38.3,13.0,29.88,West,264,0.0,-999.0,36,-99.99,,,0.00,weatherlink.com 1.10,2013-02-25 10:08:00,
2013-02-25 05:24:00,38.0,17.0,29.91,West,264,0.0,-999.0,42,-99.99,,,0.00,weatherlink.com 1.10,2013-02-25 10:24:00,
2013-02-25 05:39:00,38.5,18.0,29.91,NW,320,4.0,-999.0,43,-99.99,,,0.00,weatherlink.com 1.10,2013-02-25 10:39:00,
2013-02-25 05:54:00,38.6,18.0,29.91,WSW,257,0.0,-999.0,44,-99.99,,,0.00,weatherlink.com 1.10,2013-02-25 10:54:00,
2013-02-25 06:09:00,38.6,19.0,29.91,WSW,257,1.0,-999.0,45,-99.99,,,0.00,weatherlink.com 1.10,2013-02-25 11:09:00,
2013-02-25 06:24:00,38.6,19.0,29.92,WSW,257,0.0,-999.0,46,-99.99,,,0.00,weatherlink.com 1.10,2013-02-25 11:24:00,
2013-02-25 06:39:00,38.5,19.0,29.93,SW,214,1.0,-999.0,46,-99.99,,,0.00,weatherlink.com 1.10,2013-02-25 11:39:00,
2013-02-25 06:54:00,37.9,20.0,29.93,North,351,0.0,-999.0,49,-99.99,,,0.00,weatherlink.com 1.10,2013-02-25 11:54:00,
2013-02-25 07:09:00,36.2,19.0,29.95,WSW,240,3.0,-999.0,51,-99.99,,,0.00,weatherlink.com 1.10,2013-02-25 12:09:00,
2013-02-25 07:24:00,36.2,19.0,29.96,WSW,240,0.0,-999.0,51,-99.99,,,0.00,weatherlink.com 1.10,2013-02-25 12:24:00,
2013-02-25 07:39:00,37.2,19.0,29.96,WNW,290,0.0,-999.0,48,-99.99,,,0.00,weatherlink.com 1.10,2013-02-25 12:39:00,
2013-02-25 07:54:00,37.6,19.0,29.97,WSW,244,0.0,-999.0,47,-99.99,,,0.00,weatherlink.com 1.10,2013-02-25 12:54:00,
2013-02-25 08:09:00,37.6,19.0,29.98,SW,227,0.0,-999.0,48,-99.99,,,0.00,weatherlink.com 1.10,2013-02-25 13:09:00,
2013-02-25 08:24:00,36.2,22.0,29.99,SW,227,2.0,-999.0,57,-99.99,,,0.00,weatherlink.com 1.10,2013-02-25 13:24:00,
2013-02-25 08:39:00,36.6,21.0,30.00,SW,227,0.0,-999.0,54,-99.99,,,0.00,weatherlink.com 1.10,2013-02-25 13:39:00,
2013-02-25 08:55:00,36.5,22.0,30.00,SW,227,0.0,-999.0,57,-99.99,,,0.00,weatherlink.com 1.10,2013-02-25 13:55:00,
2013-02-25 09:10:00,33.8,20.0,30.02,SW,227,0.0,-999.0,57,-99.99,,,0.00,weatherlink.com 1.10,2013-02-25 14:10:00,
2013-02-25 09:25:00,33.7,21.0,30.03,SW,227,0.0,-999.0,60,-99.99,,,0.00,weatherlink.com 1.10,2013-02-25 14:25:00,
2013-02-25 09:40:00,34.6,22.0,30.03,SW,227,0.0,-999.0,61,-99.99,,,0.00,weatherlink.com 1.10,2013-02-25 14:40:00,
2013-02-25 09:55:00,34.0,21.0,30.02,SW,227,0.0,-999.0,59,-99.99,,,0.00,weatherlink.com 1.10,2013-02-25 14:55:00,
2013-02-25 10:10:00,34.7,22.0,30.03,WSW,238,0.0,-999.0,59,-99.99,,,0.00,weatherlink.com 1.10,2013-02-25 15:10:00,
2013-02-25 10:25:00,34.3,22.0,30.02,ENE,65,0.0,-999.0,60,-99.99,,,0.00,weatherlink.com 1.10,2013-02-25 15:25:00,
2013-02-25 10:40:00,33.8,21.0,30.02,ENE,65,0.0,-999.0,60,-99.99,,,0.00,weatherlink.com 1.10,2013-02-25 15:40:00,
2013-02-25 10:55:00,35.5,23.0,30.02,ENE,65,0.0,-999.0,60,-99.99,,,0.00,weatherlink.com 1.10,2013-02-25 15:55:00,
2013-02-25 11:10:00,37.0,24.0,30.00,SSW,211,2.0,-999.0,59,-99.99,,,0.00,weatherlink.com 1.10,2013-02-25 16:10:00,
2013-02-25 11:25:00,39.2,25.0,29.99,South,190,0.0,-999.0,57,-99.99,,,0.00,weatherlink.com 1.10,2013-02-25 16:25:00,
2013-02-25 11:40:00,39.2,25.0,29.97,SSW,211,3.0,-999.0,57,-99.99,,,0.00,weatherlink.com 1.10,2013-02-25 16:40:00,
2013-02-25 11:55:00,37.8,24.0,29.97,ESE,115,1.0,-999.0,59,-99.99,,,0.00,weatherlink.com 1.10,2013-02-25 16:55:00,
2013-02-25 12:11:00,36.8,24.0,29.99,WSW,238,3.0,-999.0,60,-99.99,,,0.00,weatherlink.com 1.10,2013-02-25 17:11:00,
2013-02-25 12:26:00,39.1,26.0,29.98,SW,222,2.0,-999.0,59,-99.99,,,0.00,weatherlink.com 1.10,2013-02-25 17:26:00,
2013-02-25 12:41:00,36.9,24.0,29.95,East,84,1.0,-999.0,60,-99.99,,,0.00,weatherlink.com 1.10,2013-02-25 17:41:00,
2013-02-25 12:56:00,36.5,24.0,29.95,East,84,0.0,-999.0,62,-99.99,,,0.00,weatherlink.com 1.10,2013-02-25 17:56:00,
2013-02-25 13:11:00,37.5,26.0,29.96,East,84,0.0,-999.0,63,-99.99,,,0.00,weatherlink.com 1.10,2013-02-25 18:11:00,
2013-02-25 13:26:00,36.3,24.0,29.94,East,84,0.0,-999.0,62,-99.99,,,0.00,weatherlink.com 1.10,2013-02-25 18:26:00,
2013-02-25 13:41:00,36.8,25.0,29.95,East,84,0.0,-999.0,62,-99.99,,,0.00,weatherlink.com 1.10,2013-02-25 18:41:00,
2013-02-25 13:56:00,38.6,27.0,29.93,SSW,200,4.0,-999.0,63,-99.99,,,0.00,weatherlink.com 1.10,2013-02-25 18:56:00,
2013-02-25 14:11:00,39.8,28.0,29.93,South,186,1.0,-999.0,64,-99.99,,,0.00,weatherlink.com 1.10,2013-02-25 19:11:00,
2013-02-25 14:26:00,40.1,28.0,29.92,SW,215,4.0,-999.0,62,-99.99,,,0.00,weatherlink.com 1.10,2013-02-25 19:26:00,
2013-02-25 14:41:00,41.3,28.0,29.92,SW,229,2.0,-999.0,59,-99.99,,,0.00,weatherlink.com 1.10,2013-02-25 19:41:00,
2013-02-25 14:56:00,44.5,29.0,29.90,WNW,285,0.0,-999.0,55,-99.99,,,0.00,weatherlink.com 1.10,2013-02-25 19:56:00,
2013-02-25 15:11:00,44.1,27.0,29.88,ESE,122,0.0,-999.0,52,-99.99,,,0.00,weatherlink.com 1.10,2013-02-25 20:11:00,
2013-02-25 15:26:00,44.3,28.0,29.88,ESE,111,0.0,-999.0,54,-99.99,,,0.00,weatherlink.com 1.10,2013-02-25 20:26:00,
2013-02-25 15:42:00,43.6,27.0,29.88,ESE,121,0.0,-999.0,52,-99.99,,,0.00,weatherlink.com 1.10,2013-02-25 20:42:00,
2013-02-25 15:57:00,41.6,27.0,29.88,ESE,121,0.0,-999.0,56,-99.99,,,0.00,weatherlink.com 1.10,2013-02-25 20:57:00,
2013-02-25 16:12:00,41.6,27.0,29.89,ESE,121,0.0,-999.0,56,-99.99,,,0.00,weatherlink.com 1.10,2013-02-25 21:12:00,
2013-02-25 16:27:00,41.1,27.0,29.89,ESE,121,0.0,-999.0,57,-99.99,,,0.00,weatherlink.com 1.10,2013-02-25 21:27:00,
2013-02-25 16:42:00,40.5,27.0,29.88,ESE,121,0.0,-999.0,58,-99.99,,,0.00,weatherlink.com 1.10,2013-02-25 21:42:00,
2013-02-25 16:57:00,40.1,26.0,29.88,ESE,121,0.0,-999.0,58,-99.99,,,0.00,weatherlink.com 1.10,2013-02-25 21:57:00,
2013-02-25 17:12:00,40.1,26.0,29.89,ESE,121,0.0,-999.0,58,-99.99,,,0.00,weatherlink.com 1.10,2013-02-25 22:12:00,
2013-02-25 17:27:00,39.5,26.0,29.88,ESE,121,0.0,-999.0,59,-99.99,,,0.00,weatherlink.com 1.10,2013-02-25 22:27:00,
2013-02-25 17:42:00,38.2,26.0,29.87,ESE,121,0.0,-999.0,61,-99.99,,,0.00,weatherlink.com 1.10,2013-02-25 22:42:00,
2013-02-25 17:57:00,37.5,25.0,29.88,East,94,0.0,-999.0,62,-99.99,,,0.00,weatherlink.com 1.10,2013-02-25 22:57:00,
2013-02-25 18:12:00,36.9,26.0,29.87,East,94,0.0,-999.0,64,-99.99,,,0.00,weatherlink.com 1.10,2013-02-25 23:12:00,
2013-02-25 18:27:00,36.2,25.0,29.89,East,94,0.0,-999.0,65,-99.99,,,0.00,weatherlink.com 1.10,2013-02-25 23:27:00,
2013-02-25 18:42:00,35.8,25.0,29.90,East,94,0.0,-999.0,65,-99.99,,,0.00,weatherlink.com 1.10,2013-02-25 23:42:00,
2013-02-25 18:57:00,36.0,27.0,29.90,East,98,1.0,-999.0,69,-99.99,,,0.00,weatherlink.com 1.10,2013-02-25 23:57:00,
2013-02-25 19:13:00,35.8,26.0,29.89,East,98,0.0,-999.0,67,-99.99,,,0.00,weatherlink.com 1.10,2013-02-26 00:13:00,
2013-02-25 19:28:00,35.2,26.0,29.87,East,98,0.0,-999.0,69,-99.99,,,0.00,weatherlink.com 1.10,2013-02-26 00:28:00,
2013-02-25 19:43:00,34.7,26.0,29.88,East,98,0.0,-999.0,70,-99.99,,,0.00,weatherlink.com 1.10,2013-02-26 00:43:00,
2013-02-25 19:58:00,34.6,26.0,29.89,East,98,0.0,-999.0,70,-99.99,,,0.00,weatherlink.com 1.10,2013-02-26 00:58:00,
2013-02-25 20:13:00,34.4,26.0,29.89,East,98,0.0,-999.0,72,-99.99,,,0.00,weatherlink.com 1.10,2013-02-26 01:13:00,
2013-02-25 20:28:00,34.1,26.0,29.91,East,98,0.0,-999.0,73,-99.99,,,0.00,weatherlink.com 1.10,2013-02-26 01:28:00,
2013-02-25 20:43:00,33.8,27.0,29.91,East,98,0.0,-999.0,75,-99.99,,,0.00,weatherlink.com 1.10,2013-02-26 01:43:00,
2013-02-25 20:58:00,33.5,27.0,29.92,SE,142,0.0,-999.0,78,-99.99,,,0.00,weatherlink.com 1.10,2013-02-26 01:58:00,
2013-02-25 21:13:00,33.4,28.0,29.91,SE,142,0.0,-999.0,79,-99.99,,,0.00,weatherlink.com 1.10,2013-02-26 02:13:00,
2013-02-25 21:28:00,33.5,28.0,29.92,SE,142,2.0,-999.0,80,-99.99,,,0.00,weatherlink.com 1.10,2013-02-26 02:28:00,
2013-02-25 21:43:00,33.1,28.0,29.92,ENE,72,0.0,-999.0,81,-99.99,,,0.00,weatherlink.com 1.10,2013-02-26 02:43:00,
2013-02-25 21:58:00,32.7,28.0,29.93,ENE,72,0.0,-999.0,82,-99.99,,,0.00,weatherlink.com 1.10,2013-02-26 02:58:00,
2013-02-25 22:13:00,32.5,28.0,29.91,ENE,72,0.0,-999.0,83,-99.99,,,0.00,weatherlink.com 1.10,2013-02-26 03:13:00,
2013-02-25 22:29:00,32.1,28.0,29.90,ENE,72,0.0,-999.0,85,-99.99,,,0.00,weatherlink.com 1.10,2013-02-26 03:29:00,
2013-02-25 22:59:00,31.8,29.0,29.89,ENE,72,2.0,-999.0,89,-99.99,,,0.00,weatherlink.com 1.10,2013-02-26 03:59:00,
2013-02-25 23:14:00,31.5,30.0,29.89,ENE,72,0.0,-999.0,93,-99.99,,,0.00,weatherlink.com 1.10,2013-02-26 04:14:00,
2013-02-25 23:29:00,31.5,30.0,29.87,South,184,2.0,-999.0,94,-99.99,,,0.00,weatherlink.com 1.10,2013-02-26 04:29:00,
2013-02-25 23:44:00,31.6,31.0,29.87,ESE,119,2.0,-999.0,96,-99.99,,,0.00,weatherlink.com 1.10,2013-02-26 04:44:00,
2013-02-25 23:59:00,34.0,34.0,29.86,South,173,2.0,-999.0,98,-99.99,,,0.00,weatherlink.com 1.10,2013-02-26 04:59:00,